sensor_id;sensor_type;location;lat;lon;timestamp;P1;durP1;ratioP1;P2;durP2;ratioP2
14472;SDS011;7322;50.872;4.386;2023-04-24T00:02:08;2.73;;;2.27;;
14472;SDS011;7322;50.872;4.386;2023-04-24T00:04:37;2.87;;;2.10;;
14472;SDS011;7322;50.872;4.386;2023-04-24T00:07:05;3.33;;;2.53;;
14472;SDS011;7322;50.872;4.386;2023-04-24T00:09:33;3.97;;;2.50;;
14472;SDS011;7322;50.872;4.386;2023-04-24T00:12:00;3.77;;;2.70;;
14472;SDS011;7322;50.872;4.386;2023-04-24T00:14:33;3.40;;;2.73;;
14472;SDS011;7322;50.872;4.386;2023-04-24T00:17:01;5.50;;;2.77;;
14472;SDS011;7322;50.872;4.386;2023-04-24T00:19:30;3.50;;;2.37;;
14472;SDS011;7322;50.872;4.386;2023-04-24T00:24:59;3.83;;;2.73;;
14472;SDS011;7322;50.872;4.386;2023-04-24T00:39:36;3.83;;;2.47;;
14472;SDS011;7322;50.872;4.386;2023-04-24T00:42:04;3.53;;;2.50;;
14472;SDS011;7322;50.872;4.386;2023-04-24T00:44:32;4.23;;;2.73;;
14472;SDS011;7322;50.872;4.386;2023-04-24T00:46:59;3.57;;;2.60;;
14472;SDS011;7322;50.872;4.386;2023-04-24T00:49:27;3.03;;;2.60;;
14472;SDS011;7322;50.872;4.386;2023-04-24T00:51:54;3.80;;;2.60;;
14472;SDS011;7322;50.872;4.386;2023-04-24T00:54:21;3.30;;;2.80;;
14472;SDS011;7322;50.872;4.386;2023-04-24T00:56:50;4.17;;;2.20;;
14472;SDS011;7322;50.872;4.386;2023-04-24T00:59:17;3.53;;;2.47;;
14472;SDS011;7322;50.872;4.386;2023-04-24T01:01:44;3.47;;;2.50;;
14472;SDS011;7322;50.872;4.386;2023-04-24T01:04:12;4.37;;;2.67;;
14472;SDS011;7322;50.872;4.386;2023-04-24T01:06:41;3.07;;;2.27;;
14472;SDS011;7322;50.872;4.386;2023-04-24T01:09:10;3.80;;;2.63;;
14472;SDS011;7322;50.872;4.386;2023-04-24T01:11:38;3.97;;;2.70;;
14472;SDS011;7322;50.872;4.386;2023-04-24T01:14:09;3.80;;;2.30;;
14472;SDS011;7322;50.872;4.386;2023-04-24T01:16:36;3.03;;;2.57;;
14472;SDS011;7322;50.872;4.386;2023-04-24T01:19:04;4.03;;;2.63;;
14472;SDS011;7322;50.872;4.386;2023-04-24T01:21:32;4.80;;;2.43;;
14472;SDS011;7322;50.872;4.386;2023-04-24T01:24:03;3.37;;;2.40;;
14472;SDS011;7322;50.872;4.386;2023-04-24T01:26:32;4.07;;;2.87;;
14472;SDS011;7322;50.872;4.386;2023-04-24T01:28:59;4.53;;;2.87;;
14472;SDS011;7322;50.872;4.386;2023-04-24T01:31:26;3.00;;;2.47;;
14472;SDS011;7322;50.872;4.386;2023-04-24T01:33:53;5.40;;;3.10;;
14472;SDS011;7322;50.872;4.386;2023-04-24T01:36:23;5.03;;;2.80;;
14472;SDS011;7322;50.872;4.386;2023-04-24T01:38:52;3.43;;;2.60;;
14472;SDS011;7322;50.872;4.386;2023-04-24T01:41:20;5.37;;;2.60;;
14472;SDS011;7322;50.872;4.386;2023-04-24T01:43:48;3.27;;;2.30;;
14472;SDS011;7322;50.872;4.386;2023-04-24T01:46:15;2.63;;;2.40;;
14472;SDS011;7322;50.872;4.386;2023-04-24T01:48:42;4.53;;;2.20;;
14472;SDS011;7322;50.872;4.386;2023-04-24T01:51:11;3.70;;;2.73;;
14472;SDS011;7322;50.872;4.386;2023-04-24T01:53:38;4.00;;;2.87;;
14472;SDS011;7322;50.872;4.386;2023-04-24T01:56:05;4.37;;;2.47;;
14472;SDS011;7322;50.872;4.386;2023-04-24T01:58:34;2.83;;;2.10;;
14472;SDS011;7322;50.872;4.386;2023-04-24T02:01:02;3.73;;;2.40;;
14472;SDS011;7322;50.872;4.386;2023-04-24T02:03:29;2.70;;;2.30;;
14472;SDS011;7322;50.872;4.386;2023-04-24T02:05:56;3.80;;;2.50;;
14472;SDS011;7322;50.872;4.386;2023-04-24T02:08:23;2.70;;;2.20;;
14472;SDS011;7322;50.872;4.386;2023-04-24T02:10:50;3.37;;;2.40;;
14472;SDS011;7322;50.872;4.386;2023-04-24T02:13:17;4.07;;;2.60;;
14472;SDS011;7322;50.872;4.386;2023-04-24T02:15:46;3.03;;;2.40;;
14472;SDS011;7322;50.872;4.386;2023-04-24T02:18:13;2.77;;;2.40;;
14472;SDS011;7322;50.872;4.386;2023-04-24T02:20:40;3.13;;;2.20;;
14472;SDS011;7322;50.872;4.386;2023-04-24T02:23:07;4.30;;;2.50;;
14472;SDS011;7322;50.872;4.386;2023-04-24T02:25:34;3.20;;;2.40;;
14472;SDS011;7322;50.872;4.386;2023-04-24T02:28:01;3.70;;;2.30;;
14472;SDS011;7322;50.872;4.386;2023-04-24T02:30:29;3.57;;;2.37;;
14472;SDS011;7322;50.872;4.386;2023-04-24T02:32:57;2.20;;;1.77;;
14472;SDS011;7322;50.872;4.386;2023-04-24T02:35:24;2.53;;;2.20;;
14472;SDS011;7322;50.872;4.386;2023-04-24T02:37:51;2.83;;;2.30;;
14472;SDS011;7322;50.872;4.386;2023-04-24T02:40:18;2.90;;;2.33;;
14472;SDS011;7322;50.872;4.386;2023-04-24T02:42:45;3.03;;;2.50;;
14472;SDS011;7322;50.872;4.386;2023-04-24T02:45:12;5.03;;;2.70;;
14472;SDS011;7322;50.872;4.386;2023-04-24T02:47:39;2.70;;;2.30;;
14472;SDS011;7322;50.872;4.386;2023-04-24T02:50:08;4.40;;;2.60;;
14472;SDS011;7322;50.872;4.386;2023-04-24T02:52:36;2.40;;;2.03;;
14472;SDS011;7322;50.872;4.386;2023-04-24T02:55:03;3.27;;;2.63;;
14472;SDS011;7322;50.872;4.386;2023-04-24T02:57:31;2.77;;;2.30;;
14472;SDS011;7322;50.872;4.386;2023-04-24T02:59:57;3.30;;;2.40;;
14472;SDS011;7322;50.872;4.386;2023-04-24T03:02:24;3.00;;;2.60;;
14472;SDS011;7322;50.872;4.386;2023-04-24T03:04:51;3.50;;;2.50;;
14472;SDS011;7322;50.872;4.386;2023-04-24T03:07:20;4.13;;;2.30;;
14472;SDS011;7322;50.872;4.386;2023-04-24T03:09:49;3.73;;;2.47;;
14472;SDS011;7322;50.872;4.386;2023-04-24T03:12:16;2.60;;;2.17;;
14472;SDS011;7322;50.872;4.386;2023-04-24T03:14:43;3.43;;;2.40;;
14472;SDS011;7322;50.872;4.386;2023-04-24T03:17:10;3.13;;;2.43;;
14472;SDS011;7322;50.872;4.386;2023-04-24T03:19:37;3.40;;;2.47;;
14472;SDS011;7322;50.872;4.386;2023-04-24T03:22:04;4.33;;;2.80;;
14472;SDS011;7322;50.872;4.386;2023-04-24T03:24:32;2.53;;;2.23;;
14472;SDS011;7322;50.872;4.386;2023-04-24T03:26:59;3.17;;;2.30;;
14472;SDS011;7322;50.872;4.386;2023-04-24T03:29:26;2.83;;;2.30;;
14472;SDS011;7322;50.872;4.386;2023-04-24T03:31:53;4.40;;;2.37;;
14472;SDS011;7322;50.872;4.386;2023-04-24T03:34:20;3.20;;;2.40;;
14472;SDS011;7322;50.872;4.386;2023-04-24T03:36:47;2.73;;;2.37;;
14472;SDS011;7322;50.872;4.386;2023-04-24T03:39:14;3.40;;;2.30;;
14472;SDS011;7322;50.872;4.386;2023-04-24T03:41:42;3.73;;;2.20;;
14472;SDS011;7322;50.872;4.386;2023-04-24T03:44:09;3.60;;;2.30;;
14472;SDS011;7322;50.872;4.386;2023-04-24T03:46:36;3.43;;;2.40;;
14472;SDS011;7322;50.872;4.386;2023-04-24T03:49:03;3.63;;;2.20;;
14472;SDS011;7322;50.872;4.386;2023-04-24T03:51:31;2.43;;;2.00;;
14472;SDS011;7322;50.872;4.386;2023-04-24T03:53:58;3.23;;;2.23;;
14472;SDS011;7322;50.872;4.386;2023-04-24T03:56:25;3.10;;;2.30;;
14472;SDS011;7322;50.872;4.386;2023-04-24T03:58:53;2.70;;;2.10;;
14472;SDS011;7322;50.872;4.386;2023-04-24T04:01:20;2.53;;;2.23;;
14472;SDS011;7322;50.872;4.386;2023-04-24T04:03:48;2.53;;;1.93;;
14472;SDS011;7322;50.872;4.386;2023-04-24T04:06:15;2.30;;;2.00;;
14472;SDS011;7322;50.872;4.386;2023-04-24T04:08:43;3.27;;;2.17;;
14472;SDS011;7322;50.872;4.386;2023-04-24T04:11:10;2.50;;;2.00;;
14472;SDS011;7322;50.872;4.386;2023-04-24T04:13:37;2.53;;;1.93;;
14472;SDS011;7322;50.872;4.386;2023-04-24T04:16:05;3.13;;;2.07;;
14472;SDS011;7322;50.872;4.386;2023-04-24T04:18:32;2.67;;;2.10;;
14472;SDS011;7322;50.872;4.386;2023-04-24T04:24:22;2.63;;;1.90;;
14472;SDS011;7322;50.872;4.386;2023-04-24T04:27:02;2.50;;;1.53;;
14472;SDS011;7322;50.872;4.386;2023-04-24T04:29:30;2.33;;;1.83;;
14472;SDS011;7322;50.872;4.386;2023-04-24T04:32:01;2.20;;;2.00;;
14472;SDS011;7322;50.872;4.386;2023-04-24T04:34:29;3.53;;;2.03;;
14472;SDS011;7322;50.872;4.386;2023-04-24T04:37:02;2.07;;;1.77;;
14472;SDS011;7322;50.872;4.386;2023-04-24T04:39:35;2.27;;;1.97;;
14472;SDS011;7322;50.872;4.386;2023-04-24T04:42:04;2.20;;;1.77;;
14472;SDS011;7322;50.872;4.386;2023-04-24T04:44:33;2.13;;;1.80;;
14472;SDS011;7322;50.872;4.386;2023-04-24T04:49:41;3.27;;;1.90;;
14472;SDS011;7322;50.872;4.386;2023-04-24T04:55:18;2.60;;;1.80;;
14472;SDS011;7322;50.872;4.386;2023-04-24T04:57:50;2.10;;;1.67;;
14472;SDS011;7322;50.872;4.386;2023-04-24T05:03:20;2.07;;;1.70;;
14472;SDS011;7322;50.872;4.386;2023-04-24T05:05:53;2.33;;;1.77;;
14472;SDS011;7322;50.872;4.386;2023-04-24T05:08:22;2.17;;;1.80;;
14472;SDS011;7322;50.872;4.386;2023-04-24T05:10:51;2.37;;;1.93;;
14472;SDS011;7322;50.872;4.386;2023-04-24T05:13:26;3.03;;;2.00;;
14472;SDS011;7322;50.872;4.386;2023-04-24T05:15:53;2.60;;;2.40;;
14472;SDS011;7322;50.872;4.386;2023-04-24T05:21:33;3.20;;;2.57;;
14472;SDS011;7322;50.872;4.386;2023-04-24T05:24:00;3.57;;;2.67;;
14472;SDS011;7322;50.872;4.386;2023-04-24T05:26:29;3.70;;;2.40;;
14472;SDS011;7322;50.872;4.386;2023-04-24T05:28:57;2.73;;;2.37;;
14472;SDS011;7322;50.872;4.386;2023-04-24T05:31:32;2.33;;;2.00;;
14472;SDS011;7322;50.872;4.386;2023-04-24T05:36:53;2.67;;;2.30;;
14472;SDS011;7322;50.872;4.386;2023-04-24T05:39:28;2.40;;;1.70;;
14472;SDS011;7322;50.872;4.386;2023-04-24T05:45:27;2.70;;;1.90;;
14472;SDS011;7322;50.872;4.386;2023-04-24T05:48:00;2.70;;;2.00;;
14472;SDS011;7322;50.872;4.386;2023-04-24T05:50:28;3.23;;;2.27;;
14472;SDS011;7322;50.872;4.386;2023-04-24T05:53:10;3.37;;;2.43;;
14472;SDS011;7322;50.872;4.386;2023-04-24T05:55:38;2.10;;;1.90;;
14472;SDS011;7322;50.872;4.386;2023-04-24T05:58:06;3.83;;;2.60;;
14472;SDS011;7322;50.872;4.386;2023-04-24T06:00:41;2.43;;;2.00;;
14472;SDS011;7322;50.872;4.386;2023-04-24T06:03:15;3.50;;;2.20;;
14472;SDS011;7322;50.872;4.386;2023-04-24T06:14:48;3.07;;;2.43;;
14472;SDS011;7322;50.872;4.386;2023-04-24T06:17:20;3.13;;;2.20;;
14472;SDS011;7322;50.872;4.386;2023-04-24T06:19:48;3.63;;;2.77;;
14472;SDS011;7322;50.872;4.386;2023-04-24T06:22:15;3.73;;;2.77;;
14472;SDS011;7322;50.872;4.386;2023-04-24T06:24:49;3.77;;;2.73;;
14472;SDS011;7322;50.872;4.386;2023-04-24T06:27:29;3.57;;;2.30;;
14472;SDS011;7322;50.872;4.386;2023-04-24T06:32:56;3.63;;;2.40;;
14472;SDS011;7322;50.872;4.386;2023-04-24T06:35:34;2.97;;;2.57;;
14472;SDS011;7322;50.872;4.386;2023-04-24T06:38:03;2.67;;;2.33;;
14472;SDS011;7322;50.872;4.386;2023-04-24T06:43:55;3.60;;;2.90;;
14472;SDS011;7322;50.872;4.386;2023-04-24T06:46:32;4.73;;;3.30;;
14472;SDS011;7322;50.872;4.386;2023-04-24T06:51:43;3.77;;;3.10;;
14472;SDS011;7322;50.872;4.386;2023-04-24T06:54:10;3.27;;;2.77;;
14472;SDS011;7322;50.872;4.386;2023-04-24T06:56:37;6.43;;;3.17;;
14472;SDS011;7322;50.872;4.386;2023-04-24T06:59:06;3.97;;;3.27;;
14472;SDS011;7322;50.872;4.386;2023-04-24T07:01:33;4.47;;;3.30;;
14472;SDS011;7322;50.872;4.386;2023-04-24T07:04:02;3.47;;;2.73;;
14472;SDS011;7322;50.872;4.386;2023-04-24T07:06:29;6.70;;;3.17;;
14472;SDS011;7322;50.872;4.386;2023-04-24T07:08:57;5.47;;;3.23;;
14472;SDS011;7322;50.872;4.386;2023-04-24T07:11:42;4.43;;;3.20;;
14472;SDS011;7322;50.872;4.386;2023-04-24T07:20:19;4.70;;;3.50;;
14472;SDS011;7322;50.872;4.386;2023-04-24T07:22:46;5.27;;;3.10;;
14472;SDS011;7322;50.872;4.386;2023-04-24T07:25:17;6.97;;;3.60;;
14472;SDS011;7322;50.872;4.386;2023-04-24T07:27:53;4.07;;;3.23;;
14472;SDS011;7322;50.872;4.386;2023-04-24T07:30:30;6.47;;;3.33;;
14472;SDS011;7322;50.872;4.386;2023-04-24T07:32:57;4.67;;;3.47;;
14472;SDS011;7322;50.872;4.386;2023-04-24T07:35:32;4.33;;;3.23;;
14472;SDS011;7322;50.872;4.386;2023-04-24T07:38:00;4.47;;;3.30;;
14472;SDS011;7322;50.872;4.386;2023-04-24T07:40:36;4.77;;;3.07;;
14472;SDS011;7322;50.872;4.386;2023-04-24T07:43:09;4.53;;;3.30;;
14472;SDS011;7322;50.872;4.386;2023-04-24T07:45:37;5.30;;;3.30;;
14472;SDS011;7322;50.872;4.386;2023-04-24T07:48:09;4.73;;;2.77;;
14472;SDS011;7322;50.872;4.386;2023-04-24T07:50:42;8.40;;;3.23;;
14472;SDS011;7322;50.872;4.386;2023-04-24T07:55:46;7.00;;;3.30;;
14472;SDS011;7322;50.872;4.386;2023-04-24T07:58:15;4.53;;;2.90;;
14472;SDS011;7322;50.872;4.386;2023-04-24T08:03:13;4.77;;;3.43;;
14472;SDS011;7322;50.872;4.386;2023-04-24T08:05:51;3.47;;;2.80;;
14472;SDS011;7322;50.872;4.386;2023-04-24T08:08:28;4.73;;;3.03;;
14472;SDS011;7322;50.872;4.386;2023-04-24T08:10:56;5.07;;;3.03;;
14472;SDS011;7322;50.872;4.386;2023-04-24T08:13:23;6.20;;;3.70;;
14472;SDS011;7322;50.872;4.386;2023-04-24T08:16:03;4.80;;;3.40;;
14472;SDS011;7322;50.872;4.386;2023-04-24T08:21:26;5.00;;;3.23;;
14472;SDS011;7322;50.872;4.386;2023-04-24T08:23:54;5.57;;;2.93;;
14472;SDS011;7322;50.872;4.386;2023-04-24T08:26:22;5.03;;;3.33;;
14472;SDS011;7322;50.872;4.386;2023-04-24T08:28:49;5.63;;;3.50;;
14472;SDS011;7322;50.872;4.386;2023-04-24T08:31:20;6.40;;;3.17;;
14472;SDS011;7322;50.872;4.386;2023-04-24T08:33:57;5.10;;;3.10;;
14472;SDS011;7322;50.872;4.386;2023-04-24T08:38:57;5.00;;;3.50;;
14472;SDS011;7322;50.872;4.386;2023-04-24T08:41:30;4.47;;;3.30;;
14472;SDS011;7322;50.872;4.386;2023-04-24T08:44:07;8.00;;;3.40;;
14472;SDS011;7322;50.872;4.386;2023-04-24T08:46:38;4.20;;;2.80;;
14472;SDS011;7322;50.872;4.386;2023-04-24T08:49:06;5.30;;;3.00;;
14472;SDS011;7322;50.872;4.386;2023-04-24T08:51:48;5.00;;;2.73;;
14472;SDS011;7322;50.872;4.386;2023-04-24T08:54:17;3.60;;;2.63;;
14472;SDS011;7322;50.872;4.386;2023-04-24T08:59:18;7.40;;;2.80;;
14472;SDS011;7322;50.872;4.386;2023-04-24T09:02:04;5.73;;;3.23;;
14472;SDS011;7322;50.872;4.386;2023-04-24T09:04:31;5.20;;;3.03;;
14472;SDS011;7322;50.872;4.386;2023-04-24T09:07:00;4.17;;;3.00;;
14472;SDS011;7322;50.872;4.386;2023-04-24T09:09:29;4.43;;;3.00;;
14472;SDS011;7322;50.872;4.386;2023-04-24T09:12:07;4.87;;;3.10;;
14472;SDS011;7322;50.872;4.386;2023-04-24T09:14:36;3.87;;;2.63;;
14472;SDS011;7322;50.872;4.386;2023-04-24T09:17:21;5.47;;;3.20;;
14472;SDS011;7322;50.872;4.386;2023-04-24T09:19:51;3.87;;;3.00;;
14472;SDS011;7322;50.872;4.386;2023-04-24T09:22:20;4.63;;;3.13;;
14472;SDS011;7322;50.872;4.386;2023-04-24T09:24:47;5.27;;;3.13;;
14472;SDS011;7322;50.872;4.386;2023-04-24T09:27:14;4.80;;;2.60;;
14472;SDS011;7322;50.872;4.386;2023-04-24T09:29:53;3.60;;;2.30;;
14472;SDS011;7322;50.872;4.386;2023-04-24T09:32:22;5.37;;;2.70;;
14472;SDS011;7322;50.872;4.386;2023-04-24T09:35:04;4.77;;;2.90;;
14472;SDS011;7322;50.872;4.386;2023-04-24T09:37:34;6.07;;;2.60;;
14472;SDS011;7322;50.872;4.386;2023-04-24T09:40:13;3.73;;;2.57;;
14472;SDS011;7322;50.872;4.386;2023-04-24T09:42:45;5.13;;;2.63;;
14472;SDS011;7322;50.872;4.386;2023-04-24T09:45:13;3.33;;;2.80;;
14472;SDS011;7322;50.872;4.386;2023-04-24T09:47:42;2.40;;;2.20;;
14472;SDS011;7322;50.872;4.386;2023-04-24T09:50:10;5.13;;;2.90;;
14472;SDS011;7322;50.872;4.386;2023-04-24T09:52:43;3.90;;;2.57;;
14472;SDS011;7322;50.872;4.386;2023-04-24T09:55:12;3.37;;;2.50;;
14472;SDS011;7322;50.872;4.386;2023-04-24T09:57:49;3.57;;;2.50;;
14472;SDS011;7322;50.872;4.386;2023-04-24T10:00:24;5.10;;;2.67;;
14472;SDS011;7322;50.872;4.386;2023-04-24T10:03:02;3.97;;;2.30;;
14472;SDS011;7322;50.872;4.386;2023-04-24T10:05:30;3.23;;;2.40;;
14472;SDS011;7322;50.872;4.386;2023-04-24T10:08:03;3.87;;;2.17;;
14472;SDS011;7322;50.872;4.386;2023-04-24T10:10:31;4.63;;;2.60;;
14472;SDS011;7322;50.872;4.386;2023-04-24T10:12:59;3.50;;;2.33;;
14472;SDS011;7322;50.872;4.386;2023-04-24T10:15:27;3.63;;;2.50;;
14472;SDS011;7322;50.872;4.386;2023-04-24T10:17:55;4.50;;;2.60;;
14472;SDS011;7322;50.872;4.386;2023-04-24T10:20:26;4.40;;;2.77;;
14472;SDS011;7322;50.872;4.386;2023-04-24T10:22:57;5.40;;;2.70;;
14472;SDS011;7322;50.872;4.386;2023-04-24T10:25:25;3.40;;;2.27;;
14472;SDS011;7322;50.872;4.386;2023-04-24T10:27:56;4.30;;;2.70;;
14472;SDS011;7322;50.872;4.386;2023-04-24T10:30:31;5.43;;;2.83;;
14472;SDS011;7322;50.872;4.386;2023-04-24T10:36:09;3.37;;;2.40;;
14472;SDS011;7322;50.872;4.386;2023-04-24T10:38:38;4.00;;;2.33;;
14472;SDS011;7322;50.872;4.386;2023-04-24T10:41:09;3.67;;;2.60;;
14472;SDS011;7322;50.872;4.386;2023-04-24T10:43:42;5.70;;;3.10;;
14472;SDS011;7322;50.872;4.386;2023-04-24T10:46:09;4.60;;;2.80;;
14472;SDS011;7322;50.872;4.386;2023-04-24T10:48:42;3.50;;;2.47;;
14472;SDS011;7322;50.872;4.386;2023-04-24T10:51:12;5.30;;;2.70;;
14472;SDS011;7322;50.872;4.386;2023-04-24T10:53:41;2.43;;;2.23;;
14472;SDS011;7322;50.872;4.386;2023-04-24T10:56:08;4.30;;;3.10;;
14472;SDS011;7322;50.872;4.386;2023-04-24T10:58:39;4.50;;;2.57;;
14472;SDS011;7322;50.872;4.386;2023-04-24T11:03:56;4.40;;;2.80;;
14472;SDS011;7322;50.872;4.386;2023-04-24T11:06:33;4.60;;;2.63;;
14472;SDS011;7322;50.872;4.386;2023-04-24T11:09:03;5.97;;;2.77;;
14472;SDS011;7322;50.872;4.386;2023-04-24T11:11:44;4.87;;;2.60;;
14472;SDS011;7322;50.872;4.386;2023-04-24T11:17:35;4.00;;;2.90;;
14472;SDS011;7322;50.872;4.386;2023-04-24T11:22:41;4.20;;;2.83;;
14472;SDS011;7322;50.872;4.386;2023-04-24T11:25:08;3.70;;;2.70;;
14472;SDS011;7322;50.872;4.386;2023-04-24T11:27:45;4.37;;;2.90;;
14472;SDS011;7322;50.872;4.386;2023-04-24T11:30:16;3.97;;;2.70;;
14472;SDS011;7322;50.872;4.386;2023-04-24T11:32:50;4.87;;;3.03;;
14472;SDS011;7322;50.872;4.386;2023-04-24T11:35:29;4.63;;;3.27;;
14472;SDS011;7322;50.872;4.386;2023-04-24T11:38:07;5.53;;;3.17;;
14472;SDS011;7322;50.872;4.386;2023-04-24T11:40:36;5.03;;;2.40;;
14472;SDS011;7322;50.872;4.386;2023-04-24T11:43:06;4.23;;;2.73;;
14472;SDS011;7322;50.872;4.386;2023-04-24T11:45:35;4.27;;;2.73;;
14472;SDS011;7322;50.872;4.386;2023-04-24T11:48:03;4.80;;;2.93;;
14472;SDS011;7322;50.872;4.386;2023-04-24T11:50:32;5.87;;;3.20;;
14472;SDS011;7322;50.872;4.386;2023-04-24T11:53:01;4.13;;;2.70;;
14472;SDS011;7322;50.872;4.386;2023-04-24T11:55:37;5.33;;;2.93;;
14472;SDS011;7322;50.872;4.386;2023-04-24T11:58:11;4.17;;;2.90;;
14472;SDS011;7322;50.872;4.386;2023-04-24T12:00:38;5.80;;;3.13;;
14472;SDS011;7322;50.872;4.386;2023-04-24T12:03:07;5.23;;;3.00;;
14472;SDS011;7322;50.872;4.386;2023-04-24T12:05:37;5.13;;;3.30;;
14472;SDS011;7322;50.872;4.386;2023-04-24T12:08:05;4.23;;;2.70;;
14472;SDS011;7322;50.872;4.386;2023-04-24T12:10:32;4.83;;;3.07;;
14472;SDS011;7322;50.872;4.386;2023-04-24T12:13:01;4.43;;;2.93;;
14472;SDS011;7322;50.872;4.386;2023-04-24T12:15:28;5.57;;;2.90;;
14472;SDS011;7322;50.872;4.386;2023-04-24T12:17:56;5.03;;;3.13;;
14472;SDS011;7322;50.872;4.386;2023-04-24T12:20:23;4.57;;;3.20;;
14472;SDS011;7322;50.872;4.386;2023-04-24T12:22:52;5.73;;;2.97;;
14472;SDS011;7322;50.872;4.386;2023-04-24T12:25:21;4.33;;;2.70;;
14472;SDS011;7322;50.872;4.386;2023-04-24T12:27:52;5.60;;;3.10;;
14472;SDS011;7322;50.872;4.386;2023-04-24T12:30:25;4.87;;;2.60;;
14472;SDS011;7322;50.872;4.386;2023-04-24T12:32:54;4.87;;;2.80;;
14472;SDS011;7322;50.872;4.386;2023-04-24T12:35:25;5.57;;;2.80;;
14472;SDS011;7322;50.872;4.386;2023-04-24T12:37:53;4.80;;;2.90;;
14472;SDS011;7322;50.872;4.386;2023-04-24T12:40:21;4.50;;;2.70;;
14472;SDS011;7322;50.872;4.386;2023-04-24T12:42:51;3.63;;;2.90;;
14472;SDS011;7322;50.872;4.386;2023-04-24T12:45:18;3.17;;;2.60;;
14472;SDS011;7322;50.872;4.386;2023-04-24T12:47:49;4.60;;;2.80;;
14472;SDS011;7322;50.872;4.386;2023-04-24T12:50:17;5.83;;;3.00;;
14472;SDS011;7322;50.872;4.386;2023-04-24T12:52:44;4.13;;;2.83;;
14472;SDS011;7322;50.872;4.386;2023-04-24T12:55:11;4.57;;;2.60;;
14472;SDS011;7322;50.872;4.386;2023-04-24T12:57:39;4.77;;;2.90;;
14472;SDS011;7322;50.872;4.386;2023-04-24T13:00:08;5.50;;;2.97;;
14472;SDS011;7322;50.872;4.386;2023-04-24T13:02:35;4.20;;;3.00;;
14472;SDS011;7322;50.872;4.386;2023-04-24T13:05:04;4.77;;;2.90;;
14472;SDS011;7322;50.872;4.386;2023-04-24T13:07:32;5.70;;;3.00;;
14472;SDS011;7322;50.872;4.386;2023-04-24T13:09:59;4.07;;;2.90;;
14472;SDS011;7322;50.872;4.386;2023-04-24T13:12:26;5.13;;;2.77;;
14472;SDS011;7322;50.872;4.386;2023-04-24T13:14:53;4.57;;;2.83;;
14472;SDS011;7322;50.872;4.386;2023-04-24T13:17:21;4.53;;;2.83;;
14472;SDS011;7322;50.872;4.386;2023-04-24T13:19:49;5.10;;;2.93;;
14472;SDS011;7322;50.872;4.386;2023-04-24T13:24:50;4.10;;;2.70;;
14472;SDS011;7322;50.872;4.386;2023-04-24T13:27:17;5.53;;;3.30;;
14472;SDS011;7322;50.872;4.386;2023-04-24T13:29:44;4.77;;;2.70;;
14472;SDS011;7322;50.872;4.386;2023-04-24T13:32:11;4.67;;;2.90;;
14472;SDS011;7322;50.872;4.386;2023-04-24T13:34:38;4.30;;;2.87;;
14472;SDS011;7322;50.872;4.386;2023-04-24T13:37:05;3.13;;;2.67;;
14472;SDS011;7322;50.872;4.386;2023-04-24T13:39:34;3.67;;;2.47;;
14472;SDS011;7322;50.872;4.386;2023-04-24T13:42:01;4.20;;;2.80;;
14472;SDS011;7322;50.872;4.386;2023-04-24T13:44:28;3.47;;;2.20;;
14472;SDS011;7322;50.872;4.386;2023-04-24T13:46:55;4.23;;;2.47;;
14472;SDS011;7322;50.872;4.386;2023-04-24T13:49:24;3.63;;;2.80;;
14472;SDS011;7322;50.872;4.386;2023-04-24T13:51:52;4.77;;;2.27;;
14472;SDS011;7322;50.872;4.386;2023-04-24T13:54:26;4.20;;;2.57;;
14472;SDS011;7322;50.872;4.386;2023-04-24T13:56:55;4.20;;;2.50;;
14472;SDS011;7322;50.872;4.386;2023-04-24T13:59:24;2.60;;;2.40;;
14472;SDS011;7322;50.872;4.386;2023-04-24T14:01:51;3.37;;;2.47;;
14472;SDS011;7322;50.872;4.386;2023-04-24T14:04:18;4.67;;;2.50;;
14472;SDS011;7322;50.872;4.386;2023-04-24T14:06:47;3.43;;;2.00;;
14472;SDS011;7322;50.872;4.386;2023-04-24T14:09:14;3.50;;;2.50;;
14472;SDS011;7322;50.872;4.386;2023-04-24T14:11:41;5.00;;;2.20;;
14472;SDS011;7322;50.872;4.386;2023-04-24T14:14:12;4.17;;;2.40;;
14472;SDS011;7322;50.872;4.386;2023-04-24T14:16:39;3.30;;;2.13;;
14472;SDS011;7322;50.872;4.386;2023-04-24T14:19:06;4.10;;;2.60;;
14472;SDS011;7322;50.872;4.386;2023-04-24T14:21:33;2.83;;;2.30;;
14472;SDS011;7322;50.872;4.386;2023-04-24T14:24:00;3.27;;;2.40;;
14472;SDS011;7322;50.872;4.386;2023-04-24T14:26:27;2.47;;;2.27;;
14472;SDS011;7322;50.872;4.386;2023-04-24T14:28:54;3.60;;;2.27;;
14472;SDS011;7322;50.872;4.386;2023-04-24T14:31:25;2.63;;;2.10;;
14472;SDS011;7322;50.872;4.386;2023-04-24T14:33:52;2.30;;;2.10;;
14472;SDS011;7322;50.872;4.386;2023-04-24T14:36:19;3.40;;;2.50;;
14472;SDS011;7322;50.872;4.386;2023-04-24T14:38:46;3.00;;;2.17;;
14472;SDS011;7322;50.872;4.386;2023-04-24T14:41:13;3.07;;;2.27;;
14472;SDS011;7322;50.872;4.386;2023-04-24T14:43:40;4.23;;;2.03;;
14472;SDS011;7322;50.872;4.386;2023-04-24T14:46:07;3.30;;;2.27;;
14472;SDS011;7322;50.872;4.386;2023-04-24T14:48:36;3.60;;;2.20;;
14472;SDS011;7322;50.872;4.386;2023-04-24T14:51:03;3.33;;;2.10;;
14472;SDS011;7322;50.872;4.386;2023-04-24T14:53:31;2.87;;;2.27;;
14472;SDS011;7322;50.872;4.386;2023-04-24T14:55:58;3.20;;;2.10;;
14472;SDS011;7322;50.872;4.386;2023-04-24T14:58:25;2.93;;;2.20;;
14472;SDS011;7322;50.872;4.386;2023-04-24T15:00:53;2.77;;;1.60;;
14472;SDS011;7322;50.872;4.386;2023-04-24T15:03:22;3.50;;;2.10;;
14472;SDS011;7322;50.872;4.386;2023-04-24T15:05:53;4.37;;;2.07;;
14472;SDS011;7322;50.872;4.386;2023-04-24T15:08:21;3.27;;;1.90;;
14472;SDS011;7322;50.872;4.386;2023-04-24T15:10:49;3.63;;;2.40;;
14472;SDS011;7322;50.872;4.386;2023-04-24T15:13:16;2.30;;;1.83;;
14472;SDS011;7322;50.872;4.386;2023-04-24T15:15:43;2.70;;;2.00;;
14472;SDS011;7322;50.872;4.386;2023-04-24T15:18:12;3.77;;;1.93;;
14472;SDS011;7322;50.872;4.386;2023-04-24T15:20:39;3.10;;;2.03;;
14472;SDS011;7322;50.872;4.386;2023-04-24T15:23:08;2.47;;;1.50;;
14472;SDS011;7322;50.872;4.386;2023-04-24T15:25:36;2.67;;;1.77;;
14472;SDS011;7322;50.872;4.386;2023-04-24T15:28:04;5.03;;;1.93;;
14472;SDS011;7322;50.872;4.386;2023-04-24T15:30:32;3.47;;;1.83;;
14472;SDS011;7322;50.872;4.386;2023-04-24T15:33:00;2.63;;;1.90;;
14472;SDS011;7322;50.872;4.386;2023-04-24T15:35:29;2.83;;;1.93;;
14472;SDS011;7322;50.872;4.386;2023-04-24T15:37:57;4.13;;;1.90;;
14472;SDS011;7322;50.872;4.386;2023-04-24T15:40:25;4.77;;;2.20;;
14472;SDS011;7322;50.872;4.386;2023-04-24T15:42:53;3.43;;;2.00;;
14472;SDS011;7322;50.872;4.386;2023-04-24T15:45:22;4.37;;;2.20;;
14472;SDS011;7322;50.872;4.386;2023-04-24T15:48:01;2.33;;;1.80;;
14472;SDS011;7322;50.872;4.386;2023-04-24T15:50:30;2.83;;;2.00;;
14472;SDS011;7322;50.872;4.386;2023-04-24T15:52:59;3.00;;;1.93;;
14472;SDS011;7322;50.872;4.386;2023-04-24T15:55:28;4.57;;;2.40;;
14472;SDS011;7322;50.872;4.386;2023-04-24T15:58:12;6.17;;;2.47;;
14472;SDS011;7322;50.872;4.386;2023-04-24T16:00:39;3.60;;;1.90;;
14472;SDS011;7322;50.872;4.386;2023-04-24T16:03:06;2.90;;;1.97;;
14472;SDS011;7322;50.872;4.386;2023-04-24T16:05:36;3.50;;;2.37;;
14472;SDS011;7322;50.872;4.386;2023-04-24T16:08:13;3.87;;;2.37;;
14472;SDS011;7322;50.872;4.386;2023-04-24T16:10:44;4.57;;;2.60;;
14472;SDS011;7322;50.872;4.386;2023-04-24T16:13:14;4.73;;;2.90;;
14472;SDS011;7322;50.872;4.386;2023-04-24T16:15:55;5.30;;;2.60;;
14472;SDS011;7322;50.872;4.386;2023-04-24T16:18:22;5.67;;;2.60;;
14472;SDS011;7322;50.872;4.386;2023-04-24T16:20:59;3.77;;;2.50;;
14472;SDS011;7322;50.872;4.386;2023-04-24T16:23:37;3.73;;;2.50;;
14472;SDS011;7322;50.872;4.386;2023-04-24T16:26:14;5.13;;;2.50;;
14472;SDS011;7322;50.872;4.386;2023-04-24T16:31:34;4.40;;;2.60;;
14472;SDS011;7322;50.872;4.386;2023-04-24T16:34:03;4.00;;;2.57;;
14472;SDS011;7322;50.872;4.386;2023-04-24T16:36:31;3.53;;;2.30;;
14472;SDS011;7322;50.872;4.386;2023-04-24T16:41:54;3.03;;;2.40;;
14472;SDS011;7322;50.872;4.386;2023-04-24T16:46:55;2.63;;;2.27;;
14472;SDS011;7322;50.872;4.386;2023-04-24T16:49:22;3.37;;;2.50;;
14472;SDS011;7322;50.872;4.386;2023-04-24T16:51:54;3.80;;;2.60;;